sensor_id;sensor_type;location;lat;lon;timestamp;P1;durP1;ratioP1;P2;durP2;ratioP2
11386;SDS011;5748;53.102;8.456;2022-08-21T00:01:24;0.90;;;0.90;;
11386;SDS011;5748;53.102;8.456;2022-08-21T00:03:53;0.97;;;0.87;;
11386;SDS011;5748;53.102;8.456;2022-08-21T00:06:22;0.90;;;0.90;;
11386;SDS011;5748;53.102;8.456;2022-08-21T00:08:50;1.27;;;0.90;;
11386;SDS011;5748;53.102;8.456;2022-08-21T00:11:19;1.37;;;1.10;;
11386;SDS011;5748;53.102;8.456;2022-08-21T00:13:46;1.07;;;0.97;;
11386;SDS011;5748;53.102;8.456;2022-08-21T00:16:14;1.27;;;1.00;;
11386;SDS011;5748;53.102;8.456;2022-08-21T00:18:41;1.10;;;1.00;;
11386;SDS011;5748;53.102;8.456;2022-08-21T00:21:08;1.10;;;1.00;;
11386;SDS011;5748;53.102;8.456;2022-08-21T00:23:37;1.00;;;0.90;;
11386;SDS011;5748;53.102;8.456;2022-08-21T00:26:06;1.20;;;0.90;;
11386;SDS011;5748;53.102;8.456;2022-08-21T00:28:53;0.80;;;0.80;;
11386;SDS011;5748;53.102;8.456;2022-08-21T00:31:20;0.90;;;0.90;;
11386;SDS011;5748;53.102;8.456;2022-08-21T00:33:48;1.10;;;0.97;;
11386;SDS011;5748;53.102;8.456;2022-08-21T00:36:15;0.80;;;0.80;;
11386;SDS011;5748;53.102;8.456;2022-08-21T00:38:43;0.80;;;0.80;;
11386;SDS011;5748;53.102;8.456;2022-08-21T00:41:10;0.90;;;0.90;;
11386;SDS011;5748;53.102;8.456;2022-08-21T00:43:45;1.27;;;0.90;;
11386;SDS011;5748;53.102;8.456;2022-08-21T00:46:14;0.90;;;0.90;;
11386;SDS011;5748;53.102;8.456;2022-08-21T00:48:41;0.90;;;0.90;;
11386;SDS011;5748;53.102;8.456;2022-08-21T00:51:10;0.80;;;0.80;;
11386;SDS011;5748;53.102;8.456;2022-08-21T00:53:41;1.17;;;0.80;;
11386;SDS011;5748;53.102;8.456;2022-08-21T00:56:11;1.00;;;0.90;;
11386;SDS011;5748;53.102;8.456;2022-08-21T00:58:40;1.30;;;1.10;;
11386;SDS011;5748;53.102;8.456;2022-08-21T01:01:08;0.70;;;0.70;;
11386;SDS011;5748;53.102;8.456;2022-08-21T01:03:37;0.80;;;0.80;;
11386;SDS011;5748;53.102;8.456;2022-08-21T01:06:05;0.87;;;0.87;;
11386;SDS011;5748;53.102;8.456;2022-08-21T01:08:33;1.00;;;0.90;;
11386;SDS011;5748;53.102;8.456;2022-08-21T01:11:02;0.87;;;0.87;;
11386;SDS011;5748;53.102;8.456;2022-08-21T01:13:32;1.13;;;0.90;;
11386;SDS011;5748;53.102;8.456;2022-08-21T01:16:04;1.03;;;0.97;;
11386;SDS011;5748;53.102;8.456;2022-08-21T01:18:35;1.10;;;1.00;;
11386;SDS011;5748;53.102;8.456;2022-08-21T01:21:09;1.00;;;1.00;;
11386;SDS011;5748;53.102;8.456;2022-08-21T01:23:40;1.00;;;1.00;;
11386;SDS011;5748;53.102;8.456;2022-08-21T01:26:10;0.90;;;0.90;;
11386;SDS011;5748;53.102;8.456;2022-08-21T01:28:42;1.03;;;0.93;;
11386;SDS011;5748;53.102;8.456;2022-08-21T01:31:26;1.33;;;1.20;;
11386;SDS011;5748;53.102;8.456;2022-08-21T01:33:54;0.93;;;0.93;;
11386;SDS011;5748;53.102;8.456;2022-08-21T01:36:24;1.10;;;1.00;;
11386;SDS011;5748;53.102;8.456;2022-08-21T01:38:52;1.10;;;1.00;;
11386;SDS011;5748;53.102;8.456;2022-08-21T01:44:03;0.97;;;0.97;;
11386;SDS011;5748;53.102;8.456;2022-08-21T01:46:30;1.30;;;1.20;;
11386;SDS011;5748;53.102;8.456;2022-08-21T01:49:06;1.27;;;1.17;;
11386;SDS011;5748;53.102;8.456;2022-08-21T01:51:35;1.20;;;1.10;;
11386;SDS011;5748;53.102;8.456;2022-08-21T01:54:02;1.10;;;0.97;;
11386;SDS011;5748;53.102;8.456;2022-08-21T01:56:39;1.03;;;0.93;;
11386;SDS011;5748;53.102;8.456;2022-08-21T01:59:10;0.90;;;0.90;;
11386;SDS011;5748;53.102;8.456;2022-08-21T02:01:37;1.00;;;0.90;;
11386;SDS011;5748;53.102;8.456;2022-08-21T02:04:06;2.73;;;0.90;;
11386;SDS011;5748;53.102;8.456;2022-08-21T02:06:36;0.87;;;0.80;;
11386;SDS011;5748;53.102;8.456;2022-08-21T02:09:05;1.13;;;0.80;;
11386;SDS011;5748;53.102;8.456;2022-08-21T02:11:34;2.17;;;1.00;;
11386;SDS011;5748;53.102;8.456;2022-08-21T02:14:05;0.97;;;0.97;;
11386;SDS011;5748;53.102;8.456;2022-08-21T02:16:32;1.00;;;0.90;;
11386;SDS011;5748;53.102;8.456;2022-08-21T02:18:59;1.00;;;0.90;;
11386;SDS011;5748;53.102;8.456;2022-08-21T02:21:26;0.93;;;0.90;;
11386;SDS011;5748;53.102;8.456;2022-08-21T02:23:54;1.20;;;0.90;;
11386;SDS011;5748;53.102;8.456;2022-08-21T02:26:21;1.10;;;1.00;;
11386;SDS011;5748;53.102;8.456;2022-08-21T02:28:49;0.87;;;0.87;;
11386;SDS011;5748;53.102;8.456;2022-08-21T02:31:16;0.87;;;0.87;;
11386;SDS011;5748;53.102;8.456;2022-08-21T02:33:43;0.93;;;0.90;;
11386;SDS011;5748;53.102;8.456;2022-08-21T02:36:12;0.83;;;0.83;;
11386;SDS011;5748;53.102;8.456;2022-08-21T02:38:40;1.17;;;0.90;;
11386;SDS011;5748;53.102;8.456;2022-08-21T02:41:10;1.10;;;1.00;;
11386;SDS011;5748;53.102;8.456;2022-08-21T02:43:41;0.90;;;0.90;;
11386;SDS011;5748;53.102;8.456;2022-08-21T02:46:09;0.87;;;0.87;;
11386;SDS011;5748;53.102;8.456;2022-08-21T02:48:40;0.93;;;0.93;;
11386;SDS011;5748;53.102;8.456;2022-08-21T02:51:09;0.80;;;0.80;;
11386;SDS011;5748;53.102;8.456;2022-08-21T02:53:40;1.07;;;0.80;;
11386;SDS011;5748;53.102;8.456;2022-08-21T02:56:09;1.73;;;0.90;;
11386;SDS011;5748;53.102;8.456;2022-08-21T02:58:41;0.80;;;0.80;;
11386;SDS011;5748;53.102;8.456;2022-08-21T03:01:12;1.23;;;0.90;;
11386;SDS011;5748;53.102;8.456;2022-08-21T03:03:41;1.53;;;0.90;;
11386;SDS011;5748;53.102;8.456;2022-08-21T03:06:11;1.27;;;1.03;;
11386;SDS011;5748;53.102;8.456;2022-08-21T03:08:41;0.70;;;0.70;;
11386;SDS011;5748;53.102;8.456;2022-08-21T03:11:11;0.70;;;0.70;;
11386;SDS011;5748;53.102;8.456;2022-08-21T03:13:39;0.80;;;0.80;;
11386;SDS011;5748;53.102;8.456;2022-08-21T03:16:07;0.70;;;0.70;;
11386;SDS011;5748;53.102;8.456;2022-08-21T03:18:34;1.10;;;0.90;;
11386;SDS011;5748;53.102;8.456;2022-08-21T03:21:01;1.13;;;1.00;;
11386;SDS011;5748;53.102;8.456;2022-08-21T03:23:29;0.80;;;0.80;;
11386;SDS011;5748;53.102;8.456;2022-08-21T03:25:57;0.70;;;0.70;;
11386;SDS011;5748;53.102;8.456;2022-08-21T03:28:25;0.80;;;0.80;;
11386;SDS011;5748;53.102;8.456;2022-08-21T03:30:52;0.80;;;0.80;;
11386;SDS011;5748;53.102;8.456;2022-08-21T03:36:04;0.90;;;0.80;;
11386;SDS011;5748;53.102;8.456;2022-08-21T03:38:34;1.20;;;0.90;;
11386;SDS011;5748;53.102;8.456;2022-08-21T03:41:10;1.17;;;0.90;;
11386;SDS011;5748;53.102;8.456;2022-08-21T03:43:41;0.70;;;0.70;;
11386;SDS011;5748;53.102;8.456;2022-08-21T03:46:08;1.07;;;0.97;;
11386;SDS011;5748;53.102;8.456;2022-08-21T03:48:38;1.47;;;0.83;;
11386;SDS011;5748;53.102;8.456;2022-08-21T03:51:05;0.73;;;0.73;;
11386;SDS011;5748;53.102;8.456;2022-08-21T03:53:33;0.87;;;0.87;;
11386;SDS011;5748;53.102;8.456;2022-08-21T03:56:01;0.97;;;0.83;;
11386;SDS011;5748;53.102;8.456;2022-08-21T03:58:29;1.17;;;1.00;;
11386;SDS011;5748;53.102;8.456;2022-08-21T04:00:58;0.80;;;0.80;;
11386;SDS011;5748;53.102;8.456;2022-08-21T04:03:27;0.80;;;0.80;;
11386;SDS011;5748;53.102;8.456;2022-08-21T04:05:55;0.90;;;0.90;;
11386;SDS011;5748;53.102;8.456;2022-08-21T04:08:22;0.90;;;0.90;;
11386;SDS011;5748;53.102;8.456;2022-08-21T04:10:50;1.10;;;1.00;;
11386;SDS011;5748;53.102;8.456;2022-08-21T04:13:20;1.00;;;1.00;;
11386;SDS011;5748;53.102;8.456;2022-08-21T04:15:48;1.43;;;0.90;;
11386;SDS011;5748;53.102;8.456;2022-08-21T04:18:16;0.97;;;0.90;;
11386;SDS011;5748;53.102;8.456;2022-08-21T04:20:44;0.80;;;0.80;;
11386;SDS011;5748;53.102;8.456;2022-08-21T04:23:14;1.60;;;0.90;;
11386;SDS011;5748;53.102;8.456;2022-08-21T04:25:42;0.93;;;0.90;;
11386;SDS011;5748;53.102;8.456;2022-08-21T04:28:12;1.63;;;0.90;;
11386;SDS011;5748;53.102;8.456;2022-08-21T04:30:39;0.90;;;0.90;;
11386;SDS011;5748;53.102;8.456;2022-08-21T04:33:06;1.47;;;1.00;;
11386;SDS011;5748;53.102;8.456;2022-08-21T04:35:35;0.93;;;0.90;;
11386;SDS011;5748;53.102;8.456;2022-08-21T04:38:11;1.00;;;0.90;;
11386;SDS011;5748;53.102;8.456;2022-08-21T04:40:38;1.10;;;1.00;;
11386;SDS011;5748;53.102;8.456;2022-08-21T04:43:06;1.10;;;1.00;;
11386;SDS011;5748;53.102;8.456;2022-08-21T04:45:36;0.90;;;0.90;;
11386;SDS011;5748;53.102;8.456;2022-08-21T04:48:07;0.90;;;0.90;;
11386;SDS011;5748;53.102;8.456;2022-08-21T04:50:39;1.20;;;0.90;;
11386;SDS011;5748;53.102;8.456;2022-08-21T04:53:16;1.60;;;1.00;;
11386;SDS011;5748;53.102;8.456;2022-08-21T04:55:47;0.93;;;0.93;;
11386;SDS011;5748;53.102;8.456;2022-08-21T04:58:15;0.90;;;0.90;;
11386;SDS011;5748;53.102;8.456;2022-08-21T05:00:55;1.07;;;0.97;;
11386;SDS011;5748;53.102;8.456;2022-08-21T05:03:23;1.20;;;1.00;;
11386;SDS011;5748;53.102;8.456;2022-08-21T05:05:52;1.33;;;1.00;;
11386;SDS011;5748;53.102;8.456;2022-08-21T05:08:19;1.47;;;0.90;;
11386;SDS011;5748;53.102;8.456;2022-08-21T05:10:50;1.70;;;0.97;;
11386;SDS011;5748;53.102;8.456;2022-08-21T05:13:17;1.67;;;1.13;;
11386;SDS011;5748;53.102;8.456;2022-08-21T05:15:45;1.13;;;1.00;;
11386;SDS011;5748;53.102;8.456;2022-08-21T05:18:12;0.80;;;0.80;;
11386;SDS011;5748;53.102;8.456;2022-08-21T05:20:39;1.10;;;1.00;;
11386;SDS011;5748;53.102;8.456;2022-08-21T05:23:08;1.10;;;1.00;;
11386;SDS011;5748;53.102;8.456;2022-08-21T05:25:37;0.90;;;0.90;;
11386;SDS011;5748;53.102;8.456;2022-08-21T05:28:06;1.00;;;0.90;;
11386;SDS011;5748;53.102;8.456;2022-08-21T05:30:33;1.20;;;1.10;;
11386;SDS011;5748;53.102;8.456;2022-08-21T05:33:02;1.20;;;1.10;;
11386;SDS011;5748;53.102;8.456;2022-08-21T05:35:49;0.97;;;0.90;;
11386;SDS011;5748;53.102;8.456;2022-08-21T05:38:19;1.20;;;1.10;;
11386;SDS011;5748;53.102;8.456;2022-08-21T05:40:46;1.50;;;1.27;;
11386;SDS011;5748;53.102;8.456;2022-08-21T05:43:13;1.10;;;1.00;;
11386;SDS011;5748;53.102;8.456;2022-08-21T05:45:41;1.50;;;1.27;;
11386;SDS011;5748;53.102;8.456;2022-08-21T05:48:08;1.20;;;1.10;;
11386;SDS011;5748;53.102;8.456;2022-08-21T05:50:38;1.20;;;1.10;;
11386;SDS011;5748;53.102;8.456;2022-08-21T05:53:06;1.20;;;1.10;;
11386;SDS011;5748;53.102;8.456;2022-08-21T05:55:37;1.63;;;1.40;;
11386;SDS011;5748;53.102;8.456;2022-08-21T05:58:05;1.40;;;1.30;;
11386;SDS011;5748;53.102;8.456;2022-08-21T06:03:09;2.40;;;1.80;;
11386;SDS011;5748;53.102;8.456;2022-08-21T06:05:38;2.37;;;1.73;;
11386;SDS011;5748;53.102;8.456;2022-08-21T06:08:05;1.90;;;1.57;;
11386;SDS011;5748;53.102;8.456;2022-08-21T06:10:32;3.10;;;1.60;;
11386;SDS011;5748;53.102;8.456;2022-08-21T06:13:01;1.70;;;1.60;;
11386;SDS011;5748;53.102;8.456;2022-08-21T06:15:28;2.77;;;1.50;;
11386;SDS011;5748;53.102;8.456;2022-08-21T06:17:55;1.43;;;1.23;;
11386;SDS011;5748;53.102;8.456;2022-08-21T06:20:22;1.57;;;1.40;;
11386;SDS011;5748;53.102;8.456;2022-08-21T06:22:49;1.77;;;1.40;;
11386;SDS011;5748;53.102;8.456;2022-08-21T06:25:16;1.50;;;1.40;;
11386;SDS011;5748;53.102;8.456;2022-08-21T06:27:44;1.37;;;1.27;;
11386;SDS011;5748;53.102;8.456;2022-08-21T06:30:12;1.33;;;1.07;;
11386;SDS011;5748;53.102;8.456;2022-08-21T06:32:40;1.30;;;1.20;;
11386;SDS011;5748;53.102;8.456;2022-08-21T06:35:09;1.40;;;1.30;;
11386;SDS011;5748;53.102;8.456;2022-08-21T06:37:36;1.93;;;1.30;;
11386;SDS011;5748;53.102;8.456;2022-08-21T06:40:04;1.57;;;1.40;;
11386;SDS011;5748;53.102;8.456;2022-08-21T06:42:32;1.90;;;1.37;;
11386;SDS011;5748;53.102;8.456;2022-08-21T06:45:00;2.37;;;1.60;;
11386;SDS011;5748;53.102;8.456;2022-08-21T06:47:28;1.43;;;1.33;;
11386;SDS011;5748;53.102;8.456;2022-08-21T06:49:55;2.30;;;1.30;;
11386;SDS011;5748;53.102;8.456;2022-08-21T06:52:22;2.00;;;1.40;;
11386;SDS011;5748;53.102;8.456;2022-08-21T06:54:49;1.33;;;1.23;;
11386;SDS011;5748;53.102;8.456;2022-08-21T06:57:16;1.40;;;1.30;;
11386;SDS011;5748;53.102;8.456;2022-08-21T06:59:44;1.63;;;1.30;;
11386;SDS011;5748;53.102;8.456;2022-08-21T07:02:11;1.67;;;1.20;;
11386;SDS011;5748;53.102;8.456;2022-08-21T07:04:40;1.70;;;1.57;;
11386;SDS011;5748;53.102;8.456;2022-08-21T07:07:07;1.57;;;1.40;;
11386;SDS011;5748;53.102;8.456;2022-08-21T07:09:34;2.63;;;1.60;;
11386;SDS011;5748;53.102;8.456;2022-08-21T07:12:01;1.63;;;1.53;;
11386;SDS011;5748;53.102;8.456;2022-08-21T07:14:29;1.40;;;1.30;;
11386;SDS011;5748;53.102;8.456;2022-08-21T07:16:57;2.67;;;1.43;;
11386;SDS011;5748;53.102;8.456;2022-08-21T07:19:24;1.80;;;1.60;;
11386;SDS011;5748;53.102;8.456;2022-08-21T07:21:52;1.50;;;1.37;;
11386;SDS011;5748;53.102;8.456;2022-08-21T07:24:22;3.00;;;1.43;;
11386;SDS011;5748;53.102;8.456;2022-08-21T07:26:49;1.30;;;1.20;;
11386;SDS011;5748;53.102;8.456;2022-08-21T07:29:16;2.33;;;1.10;;
11386;SDS011;5748;53.102;8.456;2022-08-21T07:31:43;1.77;;;1.13;;
11386;SDS011;5748;53.102;8.456;2022-08-21T07:34:11;2.83;;;1.13;;
11386;SDS011;5748;53.102;8.456;2022-08-21T07:36:38;1.35;;;1.15;;
11386;SDS011;5748;53.102;8.456;2022-08-21T07:39:07;1.73;;;1.20;;
11386;SDS011;5748;53.102;8.456;2022-08-21T07:41:48;2.08;;;1.30;;
11386;SDS011;5748;53.102;8.456;2022-08-21T07:44:16;0.90;;;0.90;;
11386;SDS011;5748;53.102;8.456;2022-08-21T07:46:43;2.47;;;1.20;;
11386;SDS011;5748;53.102;8.456;2022-08-21T07:49:10;1.95;;;1.00;;
11386;SDS011;5748;53.102;8.456;2022-08-21T07:51:37;1.30;;;1.20;;
11386;SDS011;5748;53.102;8.456;2022-08-21T07:54:04;1.48;;;1.10;;
11386;SDS011;5748;53.102;8.456;2022-08-21T07:56:33;1.20;;;1.10;;
11386;SDS011;5748;53.102;8.456;2022-08-21T07:59:00;1.30;;;1.20;;
11386;SDS011;5748;53.102;8.456;2022-08-21T08:01:27;0.90;;;0.90;;
11386;SDS011;5748;53.102;8.456;2022-08-21T08:03:55;2.35;;;1.10;;
11386;SDS011;5748;53.102;8.456;2022-08-21T08:06:22;1.20;;;1.00;;
11386;SDS011;5748;53.102;8.456;2022-08-21T08:08:51;1.17;;;1.08;;
11386;SDS011;5748;53.102;8.456;2022-08-21T08:11:19;2.00;;;1.10;;
11386;SDS011;5748;53.102;8.456;2022-08-21T08:13:48;2.15;;;1.20;;
11386;SDS011;5748;53.102;8.456;2022-08-21T08:16:17;1.92;;;1.20;;
11386;SDS011;5748;53.102;8.456;2022-08-21T08:18:45;1.30;;;1.20;;
11386;SDS011;5748;53.102;8.456;2022-08-21T08:21:13;1.10;;;1.00;;
11386;SDS011;5748;53.102;8.456;2022-08-21T08:23:40;1.17;;;1.08;;
11386;SDS011;5748;53.102;8.456;2022-08-21T08:26:10;1.83;;;1.10;;
11386;SDS011;5748;53.102;8.456;2022-08-21T08:28:46;1.63;;;1.00;;
11386;SDS011;5748;53.102;8.456;2022-08-21T08:31:13;1.15;;;0.90;;
11386;SDS011;5748;53.102;8.456;2022-08-21T08:33:59;1.60;;;1.50;;
11386;SDS011;5748;53.102;8.456;2022-08-21T08:36:31;1.50;;;0.90;;
11386;SDS011;5748;53.102;8.456;2022-08-21T08:42:51;1.55;;;1.00;;
11386;SDS011;5748;53.102;8.456;2022-08-21T08:45:21;1.23;;;1.00;;
11386;SDS011;5748;53.102;8.456;2022-08-21T08:47:53;1.88;;;1.23;;
11386;SDS011;5748;53.102;8.456;2022-08-21T08:50:25;1.65;;;1.10;;
11386;SDS011;5748;53.102;8.456;2022-08-21T08:53:07;1.92;;;1.40;;
11386;SDS011;5748;53.102;8.456;2022-08-21T08:55:42;2.10;;;1.70;;
11386;SDS011;5748;53.102;8.456;2022-08-21T08:58:18;1.95;;;1.50;;
11386;SDS011;5748;53.102;8.456;2022-08-21T09:00:52;2.30;;;1.30;;
11386;SDS011;5748;53.102;8.456;2022-08-21T09:03:20;2.08;;;1.40;;
11386;SDS011;5748;53.102;8.456;2022-08-21T09:05:51;1.95;;;1.30;;
11386;SDS011;5748;53.102;8.456;2022-08-21T09:08:32;1.45;;;1.33;;
11386;SDS011;5748;53.102;8.456;2022-08-21T09:11:16;1.80;;;1.40;;
11386;SDS011;5748;53.102;8.456;2022-08-21T09:14:07;1.58;;;1.10;;
11386;SDS011;5748;53.102;8.456;2022-08-21T09:16:46;2.35;;;1.33;;
11386;SDS011;5748;53.102;8.456;2022-08-21T09:19:35;1.73;;;1.15;;
11386;SDS011;5748;53.102;8.456;2022-08-21T09:22:35;2.17;;;1.20;;
11386;SDS011;5748;53.102;8.456;2022-08-21T09:25:12;1.15;;;1.05;;
11386;SDS011;5748;53.102;8.456;2022-08-21T09:27:46;1.95;;;1.27;;
11386;SDS011;5748;53.102;8.456;2022-08-21T09:30:14;1.50;;;1.25;;
11386;SDS011;5748;53.102;8.456;2022-08-21T09:32:43;1.23;;;0.90;;
11386;SDS011;5748;53.102;8.456;2022-08-21T09:35:18;1.20;;;1.10;;
11386;SDS011;5748;53.102;8.456;2022-08-21T09:37:50;2.17;;;1.08;;
11386;SDS011;5748;53.102;8.456;2022-08-21T09:40:30;1.55;;;1.05;;
11386;SDS011;5748;53.102;8.456;2022-08-21T09:43:18;1.58;;;1.08;;
11386;SDS011;5748;53.102;8.456;2022-08-21T09:45:49;1.42;;;1.10;;
11386;SDS011;5748;53.102;8.456;2022-08-21T09:48:39;1.30;;;1.00;;
11386;SDS011;5748;53.102;8.456;2022-08-21T09:51:18;1.33;;;1.00;;
11386;SDS011;5748;53.102;8.456;2022-08-21T09:53:49;1.65;;;1.08;;
11386;SDS011;5748;53.102;8.456;2022-08-21T09:56:33;1.17;;;1.00;;
11386;SDS011;5748;53.102;8.456;2022-08-21T09:59:25;1.55;;;1.15;;
11386;SDS011;5748;53.102;8.456;2022-08-21T10:04:57;1.65;;;1.10;;
11386;SDS011;5748;53.102;8.456;2022-08-21T10:07:27;1.00;;;0.90;;
11386;SDS011;5748;53.102;8.456;2022-08-21T10:09:58;1.23;;;1.10;;
11386;SDS011;5748;53.102;8.456;2022-08-21T10:12:35;0.90;;;0.80;;
11386;SDS011;5748;53.102;8.456;2022-08-21T10:15:15;1.15;;;1.00;;
11386;SDS011;5748;53.102;8.456;2022-08-21T10:17:52;0.95;;;0.85;;
11386;SDS011;5748;53.102;8.456;2022-08-21T10:20:29;1.55;;;1.10;;
11386;SDS011;5748;53.102;8.456;2022-08-21T10:23:20;1.20;;;1.00;;
11386;SDS011;5748;53.102;8.456;2022-08-21T10:26:02;1.77;;;1.00;;
11386;SDS011;5748;53.102;8.456;2022-08-21T10:28:39;0.82;;;0.80;;
11386;SDS011;5748;53.102;8.456;2022-08-21T10:31:13;1.00;;;0.88;;
11386;SDS011;5748;53.102;8.456;2022-08-21T10:33:51;1.08;;;0.98;;
11386;SDS011;5748;53.102;8.456;2022-08-21T10:36:33;1.35;;;1.15;;
11386;SDS011;5748;53.102;8.456;2022-08-21T10:39:07;1.20;;;0.80;;
11386;SDS011;5748;53.102;8.456;2022-08-21T10:41:53;1.20;;;0.90;;
11386;SDS011;5748;53.102;8.456;2022-08-21T10:44:57;0.88;;;0.80;;
11386;SDS011;5748;53.102;8.456;2022-08-21T10:47:40;0.88;;;0.75;;
11386;SDS011;5748;53.102;8.456;2022-08-21T10:50:17;1.00;;;0.88;;
11386;SDS011;5748;53.102;8.456;2022-08-21T10:53:05;0.85;;;0.80;;
11386;SDS011;5748;53.102;8.456;2022-08-21T10:55:44;0.90;;;0.70;;
11386;SDS011;5748;53.102;8.456;2022-08-21T10:58:24;4.10;;;0.90;;
11386;SDS011;5748;53.102;8.456;2022-08-21T11:00:56;1.23;;;0.82;;
11386;SDS011;5748;53.102;8.456;2022-08-21T11:03:32;1.25;;;0.60;;
11386;SDS011;5748;53.102;8.456;2022-08-21T11:06:06;0.70;;;0.70;;
11386;SDS011;5748;53.102;8.456;2022-08-21T11:08:42;1.52;;;0.73;;
11386;SDS011;5748;53.102;8.456;2022-08-21T11:11:12;0.60;;;0.60;;
11386;SDS011;5748;53.102;8.456;2022-08-21T11:17:05;0.80;;;0.80;;
11386;SDS011;5748;53.102;8.456;2022-08-21T11:19:38;0.98;;;0.80;;
11386;SDS011;5748;53.102;8.456;2022-08-21T11:22:13;0.82;;;0.60;;
11386;SDS011;5748;53.102;8.456;2022-08-21T11:27:46;1.20;;;0.75;;
11386;SDS011;5748;53.102;8.456;2022-08-21T11:30:21;0.88;;;0.70;;
11386;SDS011;5748;53.102;8.456;2022-08-21T11:33:04;1.20;;;0.80;;
11386;SDS011;5748;53.102;8.456;2022-08-21T11:35:49;0.70;;;0.70;;
11386;SDS011;5748;53.102;8.456;2022-08-21T11:38:34;0.80;;;0.70;;
11386;SDS011;5748;53.102;8.456;2022-08-21T11:41:11;0.63;;;0.60;;
11386;SDS011;5748;53.102;8.456;2022-08-21T11:43:53;0.60;;;0.60;;
11386;SDS011;5748;53.102;8.456;2022-08-21T11:46:37;1.05;;;0.80;;
11386;SDS011;5748;53.102;8.456;2022-08-21T11:49:23;1.13;;;0.70;;
11386;SDS011;5748;53.102;8.456;2022-08-21T11:52:08;0.73;;;0.73;;
11386;SDS011;5748;53.102;8.456;2022-08-21T11:54:43;0.68;;;0.68;;
11386;SDS011;5748;53.102;8.456;2022-08-21T11:57:24;1.13;;;0.80;;
11386;SDS011;5748;53.102;8.456;2022-08-21T11:59:57;0.70;;;0.70;;
11386;SDS011;5748;53.102;8.456;2022-08-21T12:02:31;1.27;;;0.93;;
11386;SDS011;5748;53.102;8.456;2022-08-21T12:05:04;0.98;;;0.80;;
11386;SDS011;5748;53.102;8.456;2022-08-21T12:07:38;0.73;;;0.70;;
11386;SDS011;5748;53.102;8.456;2022-08-21T12:10:09;0.70;;;0.70;;
11386;SDS011;5748;53.102;8.456;2022-08-21T12:12:55;0.80;;;0.68;;
11386;SDS011;5748;53.102;8.456;2022-08-21T12:15:42;0.90;;;0.80;;
11386;SDS011;5748;53.102;8.456;2022-08-21T12:18:20;0.65;;;0.60;;
11386;SDS011;5748;53.102;8.456;2022-08-21T12:20:57;0.70;;;0.63;;
11386;SDS011;5748;53.102;8.456;2022-08-21T12:23:32;0.73;;;0.60;;
11386;SDS011;5748;53.102;8.456;2022-08-21T12:26:13;0.75;;;0.75;;
11386;SDS011;5748;53.102;8.456;2022-08-21T12:29:12;0.70;;;0.70;;
11386;SDS011;5748;53.102;8.456;2022-08-21T12:31:51;0.70;;;0.70;;
11386;SDS011;5748;53.102;8.456;2022-08-21T12:34:34;0.73;;;0.73;;
11386;SDS011;5748;53.102;8.456;2022-08-21T12:37:05;1.48;;;0.82;;
11386;SDS011;5748;53.102;8.456;2022-08-21T12:39:46;1.13;;;0.70;;
11386;SDS011;5748;53.102;8.456;2022-08-21T12:42:19;0.93;;;0.60;;
11386;SDS011;5748;53.102;8.456;2022-08-21T12:44:53;0.63;;;0.60;;
11386;SDS011;5748;53.102;8.456;2022-08-21T12:47:25;1.10;;;0.90;;
11386;SDS011;5748;53.102;8.456;2022-08-21T12:50:00;0.60;;;0.60;;
11386;SDS011;5748;53.102;8.456;2022-08-21T12:52:34;0.77;;;0.75;;
11386;SDS011;5748;53.102;8.456;2022-08-21T12:55:07;0.70;;;0.70;;
11386;SDS011;5748;53.102;8.456;2022-08-21T12:57:40;0.82;;;0.70;;
11386;SDS011;5748;53.102;8.456;2022-08-21T13:00:11;1.50;;;1.00;;
11386;SDS011;5748;53.102;8.456;2022-08-21T13:02:42;0.77;;;0.77;;
11386;SDS011;5748;53.102;8.456;2022-08-21T13:05:14;0.75;;;0.60;;
11386;SDS011;5748;53.102;8.456;2022-08-21T13:07:47;0.77;;;0.70;;
11386;SDS011;5748;53.102;8.456;2022-08-21T13:10:16;1.00;;;0.88;;
11386;SDS011;5748;53.102;8.456;2022-08-21T13:12:54;0.60;;;0.60;;
11386;SDS011;5748;53.102;8.456;2022-08-21T13:15:29;0.93;;;0.60;;
11386;SDS011;5748;53.102;8.456;2022-08-21T13:18:00;0.70;;;0.70;;
11386;SDS011;5748;53.102;8.456;2022-08-21T13:20:30;0.80;;;0.80;;
11386;SDS011;5748;53.102;8.456;2022-08-21T13:23:01;0.95;;;0.70;;
11386;SDS011;5748;53.102;8.456;2022-08-21T13:25:30;0.60;;;0.60;;
11386;SDS011;5748;53.102;8.456;2022-08-21T13:28:12;0.95;;;0.85;;
11386;SDS011;5748;53.102;8.456;2022-08-21T13:30:42;0.63;;;0.60;;
11386;SDS011;5748;53.102;8.456;2022-08-21T13:33:12;0.80;;;0.70;;
11386;SDS011;5748;53.102;8.456;2022-08-21T13:35:48;0.65;;;0.65;;
11386;SDS011;5748;53.102;8.456;2022-08-21T13:38:19;0.60;;;0.60;;
11386;SDS011;5748;53.102;8.456;2022-08-21T13:40:50;0.77;;;0.70;;
11386;SDS011;5748;53.102;8.456;2022-08-21T13:43:26;0.85;;;0.68;;
11386;SDS011;5748;53.102;8.456;2022-08-21T13:46:00;0.90;;;0.70;;
11386;SDS011;5748;53.102;8.456;2022-08-21T13:48:29;1.02;;;0.85;;
11386;SDS011;5748;53.102;8.456;2022-08-21T13:53:45;0.85;;;0.73;;
11386;SDS011;5748;53.102;8.456;2022-08-21T13:56:23;1.33;;;0.80;;
11386;SDS011;5748;53.102;8.456;2022-08-21T13:59:07;0.85;;;0.68;;
11386;SDS011;5748;53.102;8.456;2022-08-21T14:01:36;1.77;;;0.80;;
11386;SDS011;5748;53.102;8.456;2022-08-21T14:04:07;1.00;;;0.60;;
11386;SDS011;5748;53.102;8.456;2022-08-21T14:06:45;0.77;;;0.77;;
11386;SDS011;5748;53.102;8.456;2022-08-21T14:09:15;0.82;;;0.70;;
11386;SDS011;5748;53.102;8.456;2022-08-21T14:11:53;0.60;;;0.60;;
11386;SDS011;5748;53.102;8.456;2022-08-21T14:14:22;1.40;;;0.90;;
11386;SDS011;5748;53.102;8.456;2022-08-21T14:16:55;0.70;;;0.70;;
11386;SDS011;5748;53.102;8.456;2022-08-21T14:19:26;0.93;;;0.70;;
11386;SDS011;5748;53.102;8.456;2022-08-21T14:24:58;0.75;;;0.75;;
11386;SDS011;5748;53.102;8.456;2022-08-21T14:27:33;0.70;;;0.70;;
11386;SDS011;5748;53.102;8.456;2022-08-21T14:30:09;0.70;;;0.70;;
11386;SDS011;5748;53.102;8.456;2022-08-21T14:32:44;0.70;;;0.70;;
11386;SDS011;5748;53.102;8.456;2022-08-21T14:35:12;0.73;;;0.70;;
11386;SDS011;5748;53.102;8.456;2022-08-21T14:37:42;0.68;;;0.68;;
11386;SDS011;5748;53.102;8.456;2022-08-21T14:40:11;0.68;;;0.68;;
11386;SDS011;5748;53.102;8.456;2022-08-21T14:42:39;0.70;;;0.70;;
11386;SDS011;5748;53.102;8.456;2022-08-21T14:45:08;0.50;;;0.50;;
11386;SDS011;5748;53.102;8.456;2022-08-21T14:47:41;0.70;;;0.70;;
11386;SDS011;5748;53.102;8.456;2022-08-21T14:50:11;1.10;;;0.60;;
11386;SDS011;5748;53.102;8.456;2022-08-21T14:52:39;0.63;;;0.63;;
11386;SDS011;5748;53.102;8.456;2022-08-21T14:55:08;0.60;;;0.60;;
11386;SDS011;5748;53.102;8.456;2022-08-21T14:57:41;0.70;;;0.70;;
11386;SDS011;5748;53.102;8.456;2022-08-21T15:00:09;0.70;;;0.60;;
11386;SDS011;5748;53.102;8.456;2022-08-21T15:02:38;0.88;;;0.60;;
11386;SDS011;5748;53.102;8.456;2022-08-21T15:05:07;0.57;;;0.57;;
11386;SDS011;5748;53.102;8.456;2022-08-21T15:07:41;0.50;;;0.50;;
11386;SDS011;5748;53.102;8.456;2022-08-21T15:10:09;0.80;;;0.55;;
11386;SDS011;5748;53.102;8.456;2022-08-21T15:12:37;0.60;;;0.60;;
11386;SDS011;5748;53.102;8.456;2022-08-21T15:15:07;0.75;;;0.60;;
11386;SDS011;5748;53.102;8.456;2022-08-21T15:17:35;0.60;;;0.50;;
11386;SDS011;5748;53.102;8.456;2022-08-21T15:20:11;0.52;;;0.50;;
11386;SDS011;5748;53.102;8.456;2022-08-21T15:22:38;1.05;;;0.70;;
11386;SDS011;5748;53.102;8.456;2022-08-21T15:25:24;1.50;;;0.50;;
11386;SDS011;5748;53.102;8.456;2022-08-21T15:27:58;2.45;;;0.80;;
11386;SDS011;5748;53.102;8.456;2022-08-21T15:30:38;0.50;;;0.50;;
11386;SDS011;5748;53.102;8.456;2022-08-21T15:33:16;0.52;;;0.52;;
11386;SDS011;5748;53.102;8.456;2022-08-21T15:35:44;0.50;;;0.50;;
11386;SDS011;5748;53.102;8.456;2022-08-21T15:38:12;0.50;;;0.50;;
11386;SDS011;5748;53.102;8.456;2022-08-21T15:40:40;0.60;;;0.60;;
11386;SDS011;5748;53.102;8.456;2022-08-21T15:43:21;1.08;;;0.70;;
11386;SDS011;5748;53.102;8.456;2022-08-21T15:45:51;0.52;;;0.52;;
11386;SDS011;5748;53.102;8.456;2022-08-21T15:48:19;0.60;;;0.60;;
11386;SDS011;5748;53.102;8.456;2022-08-21T15:50:49;0.88;;;0.70;;
11386;SDS011;5748;53.102;8.456;2022-08-21T15:53:16;0.60;;;0.60;;
11386;SDS011;5748;53.102;8.456;2022-08-21T15:55:59;0.73;;;0.60;;